< < Back
Terminal Aerodrome Forecast


Current Version              Previous Versions:   1  2  3  4  5  6  7  8  9  

Terminal Aerodrome Forecast

790
FTUS42 KFFC 281947 AAA
TAFATL
TAF AMD
KATL 281947Z 2820/2924 32012G20KT P6SM SKC
     FM282300 32010KT P6SM SCT060
     FM290600 34006KT P6SM SKC
     FM291200 10005KT P6SM SKC
     FM291600 12007KT P6SM SKC
     FM292000 16008KT P6SM SCT040 SCT250=

Latest METAR

655
SAUS70 KWBC 282200 RRH
MTRATL
METAR KATL 282152Z 33013G18KT 10SM FEW150 SCT250 11/M09 A3013 RMK AO2
SLP205 T01111094


USA.gov is the U.S. government's official web portal to all federal, state and local government web resources and services.